EZY1EU EGNT-EGAA
Flight info
| Callsign | EZY1EU |
|---|---|
| Flight time | 0h 36m |
| Altitude | 24000 |
| Route | NATEB Y96 TLA DCT TRN P600 BLACA DCT BELZU |
| Aircraft | A320/M-SDE3FGHIRWY/LB1 |
Departure
| Time | 2026-04-29 09:38 |
|---|---|
| Airport | Newcastle International Airport (EGNT) |
Arrival
| Time | 2026-04-29 10:15 |
|---|---|
| Airport | Belfast International Airport (EGAA) |
| Time | Latitude | Longitude | Altitude | Speed | Heading |
|---|---|---|---|---|---|
| 2026-04-29 09:19 | 55.03577 | -1.70945 | 262 ft | 0 kts | 275° |
| 2026-04-29 09:32 | 55.03578 | -1.70910 | 262 ft | 2 kts | 248° |
| 2026-04-29 09:32 | 55.03584 | -1.70876 | 262 ft | 4 kts | 273° |
| 2026-04-29 09:33 | 55.03577 | -1.70848 | 262 ft | 4 kts | 355° |
| 2026-04-29 09:33 | 55.03569 | -1.70847 | 262 ft | 0 kts | 4° |
| 2026-04-29 09:34 | 55.03574 | -1.70847 | 262 ft | 4 kts | 4° |
| 2026-04-29 09:35 | 55.03595 | -1.70809 | 262 ft | 6 kts | 68° |
| 2026-04-29 09:35 | 55.03586 | -1.70672 | 262 ft | 13 kts | 124° |
| 2026-04-29 09:35 | 55.03529 | -1.70644 | 261 ft | 2 kts | 183° |
| 2026-04-29 09:35 | 55.03521 | -1.70645 | 261 ft | 1 kts | 183° |
| 2026-04-29 09:36 | 55.03504 | -1.70647 | 261 ft | 6 kts | 183° |
| 2026-04-29 09:36 | 55.03483 | -1.70649 | 261 ft | 2 kts | 183° |
| 2026-04-29 09:36 | 55.03469 | -1.70650 | 261 ft | 2 kts | 183° |
| 2026-04-29 09:36 | 55.03462 | -1.70650 | 261 ft | 1 kts | 183° |
| 2026-04-29 09:37 | 55.03453 | -1.70651 | 261 ft | 5 kts | 183° |
| 2026-04-29 09:37 | 55.03383 | -1.70632 | 261 ft | 11 kts | 141° |
| 2026-04-29 09:37 | 55.03379 | -1.70537 | 261 ft | 0 kts | 64° |
| 2026-04-29 09:38 | 55.03382 | -1.70526 | 261 ft | 7 kts | 64° |
| 2026-04-29 09:38 | 55.03509 | -1.70045 | 260 ft | 82 kts | 65° |
| 2026-04-29 09:38 | 55.03838 | -1.68800 | 256 ft | 141 kts | 66° |
| 2026-04-29 09:38 | 55.04250 | -1.67196 | 886 ft | 145 kts | 66° |
| 2026-04-29 09:39 | 55.04696 | -1.65621 | 1636 ft | 146 kts | 66° |
| 2026-04-29 09:39 | 55.05287 | -1.64018 | 2071 ft | 172 kts | 45° |
| 2026-04-29 09:39 | 55.06459 | -1.63169 | 2473 ft | 201 kts | 4° |
| 2026-04-29 09:39 | 55.07842 | -1.64018 | 2893 ft | 229 kts | 318° |
| 2026-04-29 09:40 | 55.08675 | -1.66494 | 3323 ft | 252 kts | 278° |
| 2026-04-29 09:40 | 55.08454 | -1.69565 | 3892 ft | 264 kts | 239° |
| 2026-04-29 09:40 | 55.07348 | -1.72145 | 4748 ft | 269 kts | 228° |
| 2026-04-29 09:40 | 55.06494 | -1.75096 | 5592 ft | 282 kts | 259° |
| 2026-04-29 09:41 | 55.06672 | -1.78504 | 6460 ft | 288 kts | 292° |
| 2026-04-29 09:41 | 55.07573 | -1.81582 | 7351 ft | 290 kts | 303° |
| 2026-04-29 09:41 | 55.08688 | -1.84557 | 8225 ft | 295 kts | 306° |
| 2026-04-29 09:41 | 55.09822 | -1.87582 | 9080 ft | 300 kts | 304° |
| 2026-04-29 09:42 | 55.10909 | -1.90743 | 9937 ft | 307 kts | 301° |
| 2026-04-29 09:42 | 55.11937 | -1.94052 | 10711 ft | 316 kts | 300° |
| 2026-04-29 09:42 | 55.13081 | -1.97484 | 10999 ft | 339 kts | 303° |
| 2026-04-29 09:42 | 55.14320 | -2.01143 | 11335 ft | 359 kts | 302° |
| 2026-04-29 09:43 | 55.15583 | -2.04975 | 11963 ft | 368 kts | 302° |
| 2026-04-29 09:43 | 55.16858 | -2.08901 | 12675 ft | 374 kts | 301° |
| 2026-04-29 09:43 | 55.18147 | -2.12891 | 13373 ft | 380 kts | 302° |
| 2026-04-29 09:43 | 55.19462 | -2.16941 | 14064 ft | 385 kts | 302° |
| 2026-04-29 09:44 | 55.20799 | -2.21045 | 14723 ft | 390 kts | 302° |
| 2026-04-29 09:44 | 55.22151 | -2.25182 | 15377 ft | 394 kts | 302° |
| 2026-04-29 09:44 | 55.23519 | -2.29371 | 16043 ft | 398 kts | 302° |
| 2026-04-29 09:44 | 55.24895 | -2.33583 | 16694 ft | 401 kts | 302° |
| 2026-04-29 09:45 | 55.26284 | -2.37851 | 17369 ft | 404 kts | 302° |
| 2026-04-29 09:45 | 55.27681 | -2.42152 | 18015 ft | 407 kts | 302° |
| 2026-04-29 09:45 | 55.29091 | -2.46491 | 18654 ft | 411 kts | 302° |
| 2026-04-29 09:45 | 55.30511 | -2.50860 | 19205 ft | 414 kts | 302° |
| 2026-04-29 09:46 | 55.31940 | -2.55275 | 19781 ft | 417 kts | 302° |
| 2026-04-29 09:46 | 55.33367 | -2.59713 | 20350 ft | 419 kts | 302° |
| 2026-04-29 09:46 | 55.34800 | -2.64186 | 20921 ft | 421 kts | 302° |
| 2026-04-29 09:46 | 55.36239 | -2.68681 | 21481 ft | 423 kts | 302° |
| 2026-04-29 09:47 | 55.37668 | -2.73146 | 22037 ft | 426 kts | 302° |
| 2026-04-29 09:47 | 55.39130 | -2.77701 | 22575 ft | 428 kts | 302° |
| 2026-04-29 09:47 | 55.40596 | -2.82279 | 23083 ft | 431 kts | 302° |
| 2026-04-29 09:47 | 55.42069 | -2.86882 | 23570 ft | 433 kts | 302° |
| 2026-04-29 09:48 | 55.43552 | -2.91529 | 24102 ft | 436 kts | 302° |
| 2026-04-29 09:48 | 55.45021 | -2.96206 | 24419 ft | 438 kts | 299° |
| 2026-04-29 09:48 | 55.46170 | -3.01192 | 24497 ft | 439 kts | 289° |
| 2026-04-29 09:48 | 55.46858 | -3.06436 | 24515 ft | 439 kts | 282° |
| 2026-04-29 09:49 | 55.47414 | -3.11725 | 24503 ft | 439 kts | 282° |
| 2026-04-29 09:49 | 55.47976 | -3.17012 | 24502 ft | 439 kts | 282° |
| 2026-04-29 09:49 | 55.48537 | -3.22297 | 24497 ft | 438 kts | 282° |
| 2026-04-29 09:49 | 55.49097 | -3.27567 | 24505 ft | 436 kts | 282° |
| 2026-04-29 09:50 | 55.49507 | -3.32872 | 24506 ft | 437 kts | 274° |
| 2026-04-29 09:50 | 55.49438 | -3.38225 | 24493 ft | 437 kts | 263° |
| 2026-04-29 09:50 | 55.48904 | -3.43486 | 24495 ft | 436 kts | 257° |
| 2026-04-29 09:50 | 55.48245 | -3.48713 | 24494 ft | 437 kts | 257° |
| 2026-04-29 09:51 | 55.47589 | -3.53942 | 24492 ft | 437 kts | 257° |
| 2026-04-29 09:51 | 55.46947 | -3.59097 | 24500 ft | 436 kts | 257° |
| 2026-04-29 09:51 | 55.46297 | -3.64330 | 24487 ft | 437 kts | 257° |
| 2026-04-29 09:51 | 55.45644 | -3.69558 | 24479 ft | 437 kts | 257° |
| 2026-04-29 09:52 | 55.44985 | -3.74784 | 24474 ft | 438 kts | 257° |
| 2026-04-29 09:52 | 55.44319 | -3.80021 | 24456 ft | 438 kts | 257° |
| 2026-04-29 09:52 | 55.43650 | -3.85250 | 24454 ft | 438 kts | 256° |
| 2026-04-29 09:52 | 55.42978 | -3.90477 | 24456 ft | 438 kts | 256° |
| 2026-04-29 09:53 | 55.42304 | -3.95703 | 24452 ft | 438 kts | 256° |
| 2026-04-29 09:53 | 55.41627 | -4.00928 | 24436 ft | 438 kts | 256° |
| 2026-04-29 09:53 | 55.40948 | -4.06153 | 24438 ft | 438 kts | 256° |
| 2026-04-29 09:53 | 55.40268 | -4.11374 | 24442 ft | 438 kts | 256° |
| 2026-04-29 09:54 | 55.39817 | -4.14833 | 24445 ft | 438 kts | 256° |
| 2026-04-29 09:54 | 55.39135 | -4.20058 | 24446 ft | 438 kts | 256° |
| 2026-04-29 09:54 | 55.38452 | -4.25282 | 24437 ft | 438 kts | 256° |
| 2026-04-29 09:54 | 55.37767 | -4.30490 | 24440 ft | 438 kts | 256° |
| 2026-04-29 09:55 | 55.36854 | -4.37399 | 24436 ft | 438 kts | 256° |
| 2026-04-29 09:55 | 55.36163 | -4.42603 | 24439 ft | 437 kts | 256° |
| 2026-04-29 09:55 | 55.35695 | -4.46121 | 24441 ft | 437 kts | 256° |
| 2026-04-29 09:55 | 55.34859 | -4.51240 | 24444 ft | 435 kts | 245° |
| 2026-04-29 09:56 | 55.33460 | -4.55945 | 24438 ft | 433 kts | 238° |
| 2026-04-29 09:56 | 55.31993 | -4.60486 | 24436 ft | 433 kts | 238° |
| 2026-04-29 09:56 | 55.30494 | -4.65080 | 24435 ft | 433 kts | 238° |
| 2026-04-29 09:56 | 55.28988 | -4.69668 | 24427 ft | 433 kts | 238° |
| 2026-04-29 09:57 | 55.27481 | -4.74245 | 24428 ft | 433 kts | 238° |
| 2026-04-29 09:57 | 55.25976 | -4.78814 | 24425 ft | 433 kts | 238° |
| 2026-04-29 09:57 | 55.24470 | -4.83393 | 24426 ft | 433 kts | 238° |
| 2026-04-29 09:57 | 55.22960 | -4.87982 | 24430 ft | 433 kts | 238° |
| 2026-04-29 09:58 | 55.21450 | -4.92556 | 24432 ft | 433 kts | 238° |
| 2026-04-29 09:58 | 55.19939 | -4.97125 | 24406 ft | 432 kts | 238° |
| 2026-04-29 09:58 | 55.18440 | -5.01651 | 23838 ft | 429 kts | 237° |
| 2026-04-29 09:58 | 55.16947 | -5.06153 | 23301 ft | 424 kts | 237° |
| 2026-04-29 09:59 | 55.15477 | -5.10585 | 22812 ft | 419 kts | 237° |
| 2026-04-29 09:59 | 55.14017 | -5.14968 | 22287 ft | 415 kts | 237° |
| 2026-04-29 09:59 | 55.12567 | -5.19308 | 21802 ft | 412 kts | 237° |
| 2026-04-29 09:59 | 55.11145 | -5.23550 | 21285 ft | 409 kts | 236° |
| 2026-04-29 10:00 | 55.09710 | -5.27830 | 20795 ft | 407 kts | 236° |
| 2026-04-29 10:00 | 55.08284 | -5.32078 | 20270 ft | 405 kts | 236° |
| 2026-04-29 10:00 | 55.06855 | -5.36326 | 19749 ft | 404 kts | 236° |
| 2026-04-29 10:00 | 55.05426 | -5.40556 | 19205 ft | 404 kts | 236° |
| 2026-04-29 10:01 | 55.03996 | -5.44782 | 18671 ft | 404 kts | 236° |
| 2026-04-29 10:01 | 55.02573 | -5.48995 | 18097 ft | 403 kts | 235° |
| 2026-04-29 10:01 | 55.01153 | -5.53196 | 17564 ft | 401 kts | 235° |
| 2026-04-29 10:01 | 54.99739 | -5.57373 | 17037 ft | 399 kts | 235° |
| 2026-04-29 10:02 | 54.98327 | -5.61529 | 16512 ft | 398 kts | 235° |
| 2026-04-29 10:02 | 54.96923 | -5.65660 | 15989 ft | 396 kts | 235° |
| 2026-04-29 10:02 | 54.95523 | -5.69776 | 15470 ft | 394 kts | 235° |
| 2026-04-29 10:02 | 54.94127 | -5.73867 | 14955 ft | 393 kts | 235° |
| 2026-04-29 10:03 | 54.92732 | -5.77951 | 14453 ft | 391 kts | 236° |
| 2026-04-29 10:03 | 54.91345 | -5.81997 | 13919 ft | 389 kts | 236° |
| 2026-04-29 10:03 | 54.89990 | -5.85948 | 13473 ft | 383 kts | 236° |
| 2026-04-29 10:03 | 54.88624 | -5.89917 | 12979 ft | 380 kts | 236° |
| 2026-04-29 10:04 | 54.87271 | -5.93846 | 12401 ft | 378 kts | 236° |
| 2026-04-29 10:04 | 54.85939 | -5.97717 | 11882 ft | 367 kts | 236° |
| 2026-04-29 10:04 | 54.84642 | -6.01481 | 11223 ft | 357 kts | 236° |
| 2026-04-29 10:04 | 54.83398 | -6.05088 | 10804 ft | 338 kts | 236° |
| 2026-04-29 10:05 | 54.82229 | -6.08474 | 10579 ft | 318 kts | 236° |
| 2026-04-29 10:05 | 54.81095 | -6.11748 | 10310 ft | 313 kts | 236° |
| 2026-04-29 10:05 | 54.79979 | -6.14952 | 10011 ft | 308 kts | 235° |
| 2026-04-29 10:05 | 54.78875 | -6.18114 | 9608 ft | 309 kts | 235° |
| 2026-04-29 10:06 | 54.77773 | -6.21265 | 9075 ft | 302 kts | 235° |
| 2026-04-29 10:06 | 54.76691 | -6.24359 | 8556 ft | 299 kts | 235° |
| 2026-04-29 10:06 | 54.75619 | -6.27423 | 8061 ft | 296 kts | 236° |
| 2026-04-29 10:06 | 54.74553 | -6.30464 | 7560 ft | 294 kts | 235° |
| 2026-04-29 10:07 | 54.73498 | -6.33475 | 7086 ft | 293 kts | 235° |
| 2026-04-29 10:07 | 54.72437 | -6.36498 | 6586 ft | 295 kts | 236° |
| 2026-04-29 10:07 | 54.71379 | -6.39513 | 6236 ft | 291 kts | 236° |
| 2026-04-29 10:07 | 54.70326 | -6.42515 | 5783 ft | 292 kts | 235° |
| 2026-04-29 10:08 | 54.69287 | -6.45482 | 5449 ft | 284 kts | 235° |
| 2026-04-29 10:08 | 54.68301 | -6.48305 | 5271 ft | 263 kts | 235° |
| 2026-04-29 10:08 | 54.67394 | -6.50907 | 5150 ft | 243 kts | 234° |
| 2026-04-29 10:08 | 54.66346 | -6.53060 | 5047 ft | 228 kts | 210° |
| 2026-04-29 10:09 | 54.64973 | -6.54067 | 4938 ft | 211 kts | 183° |
| 2026-04-29 10:09 | 54.63546 | -6.53942 | 4596 ft | 205 kts | 158° |
| 2026-04-29 10:09 | 54.62262 | -6.52966 | 4281 ft | 199 kts | 150° |
| 2026-04-29 10:09 | 54.61024 | -6.51953 | 3993 ft | 194 kts | 150° |
| 2026-04-29 10:10 | 54.59812 | -6.50972 | 3709 ft | 190 kts | 149° |
| 2026-04-29 10:10 | 54.58875 | -6.49557 | 3462 ft | 175 kts | 115° |
| 2026-04-29 10:10 | 54.58742 | -6.47579 | 3210 ft | 169 kts | 78° |
| 2026-04-29 10:10 | 54.59335 | -6.45822 | 2967 ft | 168 kts | 62° |
| 2026-04-29 10:11 | 54.59865 | -6.44096 | 2736 ft | 159 kts | 70° |
| 2026-04-29 10:11 | 54.60298 | -6.42389 | 2524 ft | 150 kts | 71° |
| 2026-04-29 10:11 | 54.60691 | -6.40827 | 2320 ft | 136 kts | 72° |
| 2026-04-29 10:11 | 54.61063 | -6.39364 | 2146 ft | 131 kts | 71° |
| 2026-04-29 10:12 | 54.61429 | -6.37937 | 1974 ft | 129 kts | 70° |
| 2026-04-29 10:12 | 54.61795 | -6.36521 | 1806 ft | 129 kts | 70° |
| 2026-04-29 10:12 | 54.62143 | -6.35102 | 1663 ft | 128 kts | 72° |
| 2026-04-29 10:12 | 54.62491 | -6.33682 | 1484 ft | 130 kts | 70° |
| 2026-04-29 10:13 | 54.62879 | -6.32246 | 1315 ft | 134 kts | 68° |
| 2026-04-29 10:13 | 54.63277 | -6.30800 | 1143 ft | 135 kts | 67° |
| 2026-04-29 10:13 | 54.63670 | -6.29316 | 957 ft | 139 kts | 67° |
| 2026-04-29 10:13 | 54.64081 | -6.27799 | 781 ft | 135 kts | 68° |
| 2026-04-29 10:14 | 54.64472 | -6.26334 | 597 ft | 135 kts | 67° |
| 2026-04-29 10:14 | 54.64865 | -6.24875 | 446 ft | 134 kts | 69° |
| 2026-04-29 10:14 | 54.65255 | -6.23411 | 288 ft | 131 kts | 68° |
| 2026-04-29 10:14 | 54.65612 | -6.22102 | 226 ft | 106 kts | 66° |
| 2026-04-29 10:15 | 54.65850 | -6.21198 | 240 ft | 65 kts | 65° |
| 2026-04-29 10:15 | 54.66011 | -6.20605 | 250 ft | 47 kts | 65° |
| 2026-04-29 10:15 | 54.66132 | -6.20154 | 259 ft | 36 kts | 65° |
| 2026-04-29 10:15 | 54.66228 | -6.19797 | 262 ft | 30 kts | 65° |
| 2026-04-29 10:16 | 54.66338 | -6.19692 | 264 ft | 20 kts | 339° |
| 2026-04-29 10:16 | 54.66393 | -6.19797 | 263 ft | 18 kts | 282° |
| 2026-04-29 10:16 | 54.66339 | -6.20068 | 260 ft | 18 kts | 244° |
| 2026-04-29 10:16 | 54.66285 | -6.20262 | 257 ft | 18 kts | 244° |
| 2026-04-29 10:17 | 54.66231 | -6.20463 | 254 ft | 18 kts | 245° |
| 2026-04-29 10:17 | 54.66175 | -6.20667 | 251 ft | 19 kts | 245° |
| 2026-04-29 10:17 | 54.66120 | -6.20875 | 248 ft | 19 kts | 245° |
| 2026-04-29 10:17 | 54.66065 | -6.21081 | 246 ft | 19 kts | 245° |
| 2026-04-29 10:18 | 54.66101 | -6.21239 | 243 ft | 16 kts | 333° |
| 2026-04-29 10:18 | 54.66156 | -6.21342 | 242 ft | 10 kts | 252° |
| 2026-04-29 10:18 | 54.66145 | -6.21379 | 241 ft | 0 kts | 243° |